EDT,Max TemperatureF,Mean TemperatureF,Min TemperatureF,Max Dew PointF,MeanDew PointF,Min DewpointF,Max Humidity, Mean Humidity, Min Humidity, Max Sea Level PressureIn, Mean Sea Level PressureIn, Min Sea Level PressureIn, Max VisibilityMiles, Mean VisibilityMiles, Min VisibilityMiles, Max Wind SpeedMPH, Mean Wind SpeedMPH, Max Gust SpeedMPH,PrecipitationIn, CloudCover, Events, WindDirDegrees
2013-6-1,90,77,63,69,63,60,87,66,44,29.92,29.87,29.81,10,10,8,20,8,26,T,1,,203
2013-6-2,79,73,67,67,65,60,93,77,60,29.82,29.77,29.68,10,9,2,23,9,31,0.60,3,Rain-Thunderstorm,203
2013-6-3,75,66,56,66,62,51,100,84,68,29.82,29.77,29.72,10,8,1,17,7,22,0.03,5,Rain,205
2013-6-4,66,59,51,51,44,41,89,67,44,30.07,29.90,29.79,10,10,10,21,9,27,0.00,1,,312
2013-6-5,69,58,47,49,44,40,74,58,42,30.17,30.13,30.08,10,10,10,16,7,22,0.00,0,,206
2013-6-6,66,60,54,55,49,43,93,69,44,30.22,30.18,30.16,10,10,10,15,6,,0.00,1,,89
2013-6-7,58,55,51,53,50,46,96,82,67,30.14,30.08,29.94,10,7,2,18,9,24,0.78,8,Rain,80
2013-6-8,73,63,53,59,55,52,100,83,66,29.98,29.80,29.65,10,6,1,20,10,26,0.99,8,Rain-Thunderstorm,20
2013-6-9,76,66,56,59,56,52,93,71,49,30.16,30.06,29.99,10,10,10,13,4,15,0.00,5,,8
2013-6-10,65,59,52,55,53,50,96,82,67,30.22,30.16,30.06,10,10,8,10,5,23,0.09,3,Rain,176
2013-6-11,58,56,54,56,53,53,100,93,86,30.05,29.78,29.57,10,6,1,25,10,33,0.99,8,Rain,58
2013-6-12,63,59,55,58,54,51,93,83,72,29.78,29.62,29.53,10,9,2,21,11,28,0.06,7,Rain,317
2013-6-13,69,60,50,55,52,49,93,73,52,29.80,29.77,29.74,10,9,5,13,5,20,T,4,Rain,207
2013-6-14,74,64,54,56,54,50,100,73,46,29.74,29.70,29.66,10,9,6,18,4,22,0.13,5,Rain,78
2013-6-15,76,64,51,54,46,41,93,63,33,29.91,29.85,29.75,10,10,10,18,8,25,0.00,1,,292
2013-6-16,73,62,50,56,52,46,87,67,46,29.91,29.82,29.71,10,10,10,14,6,19,T,4,,210
2013-6-17,83,70,57,61,58,53,90,64,37,29.87,29.80,29.74,10,10,10,21,7,28,T,3,,256
2013-6-18,66,61,56,60,56,54,100,82,63,29.99,29.93,29.86,10,9,2,15,3,21,0.16,6,Rain,347
2013-6-19,75,63,50,57,49,43,100,67,33,30.15,30.00,29.93,10,8,1,15,6,23,0.00,2,,313
2013-6-20,73,62,50,55,49,45,84,61,38,30.25,30.22,30.16,10,10,10,16,7,25,0.00,0,,202
2013-6-21,79,67,54,58,54,48,93,66,38,30.24,30.21,30.19,10,10,9,13,5,17,0.00,0,,205
2013-6-22,80,69,58,65,61,57,93,74,54,30.21,30.16,30.11,10,10,8,14,3,20,T,3,,152
2013-6-23,79,71,63,68,65,61,93,79,64,30.13,30.06,29.97,10,8,1,25,6,36,1.82,5,Rain-Thunderstorm,179
2013-6-24,92,80,67,69,67,63,100,72,44,29.97,29.89,29.83,10,9,6,16,8,24,T,1,,264
2013-6-25,91,80,69,70,67,62,93,69,44,29.86,29.79,29.70,10,9,3,15,6,23,0.20,3,Rain-Thunderstorm,221
2013-6-26,78,67,56,68,64,56,100,84,67,29.90,29.78,29.70,10,7,1,21,6,24,0.15,6,Rain,48
2013-6-27,62,58,54,57,56,53,100,92,84,29.90,29.86,29.83,10,5,0,13,8,16,0.77,8,Fog-Rain,85
2013-6-28,65,61,56,64,59,54,100,97,93,29.82,29.65,29.54,7,2,0,24,9,34,0.55,8,Fog-Rain,76
2013-6-29,75,69,63,68,64,61,100,88,76,29.69,29.58,29.54,10,4,0,21,7,29,0.00,6,Fog,183
2013-6-30,83,73,62,69,65,61,100,85,69,29.93,29.81,29.70,10,8,3,14,6,19,0.00,1,,179